sensor_id;sensor_type;location;lat;lon;timestamp;P1;durP1;ratioP1;P2;durP2;ratioP2
19223;SDS011;9746;47.180;9.776;2023-09-19T10:11:35;0.10;;;0.10;;
19223;SDS011;9746;47.180;9.776;2023-09-19T10:14:05;0.10;;;0.10;;
19223;SDS011;9746;47.180;9.776;2023-09-19T10:16:42;0.05;;;0.05;;
19223;SDS011;9746;47.180;9.776;2023-09-19T10:19:15;0.10;;;0.10;;
19223;SDS011;9746;47.180;9.776;2023-09-19T10:21:48;0.00;;;0.00;;
19223;SDS011;9746;47.180;9.776;2023-09-19T10:24:18;0.10;;;0.10;;
19223;SDS011;9746;47.180;9.776;2023-09-19T10:26:48;0.00;;;0.00;;
19223;SDS011;9746;47.180;9.776;2023-09-19T10:29:18;0.10;;;0.10;;
19223;SDS011;9746;47.180;9.776;2023-09-19T10:31:47;0.00;;;0.00;;
19223;SDS011;9746;47.180;9.776;2023-09-19T10:34:15;0.10;;;0.10;;
19223;SDS011;9746;47.180;9.776;2023-09-19T10:36:44;0.00;;;0.00;;
19223;SDS011;9746;47.180;9.776;2023-09-19T10:39:14;0.00;;;0.00;;
19223;SDS011;9746;47.180;9.776;2023-09-19T10:41:50;0.10;;;0.10;;
19223;SDS011;9746;47.180;9.776;2023-09-19T10:44:21;0.10;;;0.10;;
19223;SDS011;9746;47.180;9.776;2023-09-19T10:46:51;0.10;;;0.10;;
19223;SDS011;9746;47.180;9.776;2023-09-19T10:49:19;0.10;;;0.10;;
19223;SDS011;9746;47.180;9.776;2023-09-19T10:51:49;0.03;;;0.03;;
19223;SDS011;9746;47.180;9.776;2023-09-19T10:54:21;0.10;;;0.10;;
19223;SDS011;9746;47.180;9.776;2023-09-19T10:56:54;0.10;;;0.10;;
19223;SDS011;9746;47.180;9.776;2023-09-19T10:59:24;0.10;;;0.10;;
19223;SDS011;9746;47.180;9.776;2023-09-19T11:02:00;0.10;;;0.10;;
19223;SDS011;9746;47.180;9.776;2023-09-19T11:04:45;0.10;;;0.10;;
19223;SDS011;9746;47.180;9.776;2023-09-19T11:07:14;0.00;;;0.00;;
19223;SDS011;9746;47.180;9.776;2023-09-19T11:09:43;0.05;;;0.05;;
19223;SDS011;9746;47.180;9.776;2023-09-19T11:12:13;0.10;;;0.10;;
19223;SDS011;9746;47.180;9.776;2023-09-19T11:24:36;0.00;;;0.00;;
19223;SDS011;9746;47.180;9.776;2023-09-19T11:27:10;0.00;;;0.00;;
19223;SDS011;9746;47.180;9.776;2023-09-19T11:44:32;0.00;;;0.00;;
19223;SDS011;9746;47.180;9.776;2023-09-19T11:47:06;0.00;;;0.00;;
19223;SDS011;9746;47.180;9.776;2023-09-19T11:49:35;0.00;;;0.00;;
19223;SDS011;9746;47.180;9.776;2023-09-19T11:52:09;0.00;;;0.00;;
19223;SDS011;9746;47.180;9.776;2023-09-19T11:54:39;0.00;;;0.00;;
19223;SDS011;9746;47.180;9.776;2023-09-19T11:57:10;0.00;;;0.00;;
19223;SDS011;9746;47.180;9.776;2023-09-19T11:59:48;0.00;;;0.00;;
19223;SDS011;9746;47.180;9.776;2023-09-19T12:02:17;0.00;;;0.00;;
19223;SDS011;9746;47.180;9.776;2023-09-19T12:05:00;0.00;;;0.00;;
19223;SDS011;9746;47.180;9.776;2023-09-19T12:07:28;0.00;;;0.00;;
19223;SDS011;9746;47.180;9.776;2023-09-19T12:10:12;0.00;;;0.00;;
19223;SDS011;9746;47.180;9.776;2023-09-19T12:12:44;0.00;;;0.00;;
19223;SDS011;9746;47.180;9.776;2023-09-19T12:15:22;0.00;;;0.00;;
19223;SDS011;9746;47.180;9.776;2023-09-19T12:17:54;0.00;;;0.00;;
19223;SDS011;9746;47.180;9.776;2023-09-19T12:23:12;0.00;;;0.00;;
19223;SDS011;9746;47.180;9.776;2023-09-19T12:25:43;0.00;;;0.00;;
19223;SDS011;9746;47.180;9.776;2023-09-19T12:28:13;0.00;;;0.00;;
19223;SDS011;9746;47.180;9.776;2023-09-19T12:33:23;0.00;;;0.00;;
19223;SDS011;9746;47.180;9.776;2023-09-19T12:38:48;0.00;;;0.00;;
19223;SDS011;9746;47.180;9.776;2023-09-19T12:41:15;0.00;;;0.00;;
19223;SDS011;9746;47.180;9.776;2023-09-19T12:43:43;0.00;;;0.00;;
19223;SDS011;9746;47.180;9.776;2023-09-19T12:51:54;0.00;;;0.00;;
19223;SDS011;9746;47.180;9.776;2023-09-19T12:54:23;0.00;;;0.00;;
19223;SDS011;9746;47.180;9.776;2023-09-19T12:56:52;0.00;;;0.00;;
19223;SDS011;9746;47.180;9.776;2023-09-19T12:59:28;0.00;;;0.00;;
19223;SDS011;9746;47.180;9.776;2023-09-19T13:04:39;0.00;;;0.00;;
19223;SDS011;9746;47.180;9.776;2023-09-19T13:07:13;0.00;;;0.00;;
19223;SDS011;9746;47.180;9.776;2023-09-19T13:10:09;0.00;;;0.00;;
19223;SDS011;9746;47.180;9.776;2023-09-19T13:12:40;0.00;;;0.00;;
19223;SDS011;9746;47.180;9.776;2023-09-19T13:15:13;0.00;;;0.00;;
19223;SDS011;9746;47.180;9.776;2023-09-19T13:17:53;0.00;;;0.00;;
19223;SDS011;9746;47.180;9.776;2023-09-19T13:20:25;0.00;;;0.00;;
19223;SDS011;9746;47.180;9.776;2023-09-19T13:22:58;0.00;;;0.00;;
19223;SDS011;9746;47.180;9.776;2023-09-19T13:25:35;0.00;;;0.00;;
19223;SDS011;9746;47.180;9.776;2023-09-19T13:28:05;0.00;;;0.00;;
19223;SDS011;9746;47.180;9.776;2023-09-19T13:30:33;0.00;;;0.00;;
19223;SDS011;9746;47.180;9.776;2023-09-19T13:33:09;0.00;;;0.00;;
19223;SDS011;9746;47.180;9.776;2023-09-19T13:35:45;0.00;;;0.00;;
19223;SDS011;9746;47.180;9.776;2023-09-19T13:38:13;0.00;;;0.00;;
19223;SDS011;9746;47.180;9.776;2023-09-19T13:40:41;0.00;;;0.00;;
19223;SDS011;9746;47.180;9.776;2023-09-19T13:43:08;0.00;;;0.00;;
19223;SDS011;9746;47.180;9.776;2023-09-19T13:45:36;0.00;;;0.00;;
19223;SDS011;9746;47.180;9.776;2023-09-19T13:48:04;0.00;;;0.00;;
19223;SDS011;9746;47.180;9.776;2023-09-19T13:50:35;0.00;;;0.00;;
19223;SDS011;9746;47.180;9.776;2023-09-19T13:53:07;0.00;;;0.00;;
19223;SDS011;9746;47.180;9.776;2023-09-19T13:55:34;0.00;;;0.00;;
19223;SDS011;9746;47.180;9.776;2023-09-19T13:58:03;0.00;;;0.00;;
19223;SDS011;9746;47.180;9.776;2023-09-19T14:00:32;0.00;;;0.00;;
19223;SDS011;9746;47.180;9.776;2023-09-19T14:03:00;0.00;;;0.00;;
19223;SDS011;9746;47.180;9.776;2023-09-19T14:05:29;0.00;;;0.00;;
19223;SDS011;9746;47.180;9.776;2023-09-19T14:07:59;0.00;;;0.00;;
19223;SDS011;9746;47.180;9.776;2023-09-19T14:10:28;0.00;;;0.00;;
19223;SDS011;9746;47.180;9.776;2023-09-19T14:12:56;0.00;;;0.00;;
19223;SDS011;9746;47.180;9.776;2023-09-19T14:15:25;0.00;;;0.00;;
19223;SDS011;9746;47.180;9.776;2023-09-19T14:17:56;0.00;;;0.00;;
19223;SDS011;9746;47.180;9.776;2023-09-19T14:20:25;0.00;;;0.00;;
19223;SDS011;9746;47.180;9.776;2023-09-19T14:22:54;0.00;;;0.00;;
19223;SDS011;9746;47.180;9.776;2023-09-19T14:25:22;0.00;;;0.00;;
19223;SDS011;9746;47.180;9.776;2023-09-19T14:27:50;0.00;;;0.00;;
19223;SDS011;9746;47.180;9.776;2023-09-19T14:30:18;0.00;;;0.00;;
19223;SDS011;9746;47.180;9.776;2023-09-19T14:32:46;0.00;;;0.00;;
19223;SDS011;9746;47.180;9.776;2023-09-19T14:35:13;0.00;;;0.00;;
19223;SDS011;9746;47.180;9.776;2023-09-19T14:37:42;0.00;;;0.00;;
19223;SDS011;9746;47.180;9.776;2023-09-19T14:40:10;0.00;;;0.00;;
19223;SDS011;9746;47.180;9.776;2023-09-19T14:42:50;0.00;;;0.00;;
19223;SDS011;9746;47.180;9.776;2023-09-19T14:45:18;0.00;;;0.00;;
19223;SDS011;9746;47.180;9.776;2023-09-19T14:50:22;0.00;;;0.00;;
19223;SDS011;9746;47.180;9.776;2023-09-19T14:52:50;0.00;;;0.00;;
19223;SDS011;9746;47.180;9.776;2023-09-19T14:55:19;0.00;;;0.00;;
19223;SDS011;9746;47.180;9.776;2023-09-19T14:57:48;0.00;;;0.00;;
19223;SDS011;9746;47.180;9.776;2023-09-19T15:00:18;0.00;;;0.00;;
19223;SDS011;9746;47.180;9.776;2023-09-19T15:02:46;0.00;;;0.00;;
19223;SDS011;9746;47.180;9.776;2023-09-19T15:05:15;0.00;;;0.00;;
19223;SDS011;9746;47.180;9.776;2023-09-19T15:10:22;0.00;;;0.00;;
19223;SDS011;9746;47.180;9.776;2023-09-19T15:12:52;0.00;;;0.00;;
19223;SDS011;9746;47.180;9.776;2023-09-19T15:15:19;0.00;;;0.00;;
19223;SDS011;9746;47.180;9.776;2023-09-19T15:20:25;0.00;;;0.00;;
19223;SDS011;9746;47.180;9.776;2023-09-19T15:25:29;0.00;;;0.00;;
19223;SDS011;9746;47.180;9.776;2023-09-19T15:28:06;0.00;;;0.00;;
19223;SDS011;9746;47.180;9.776;2023-09-19T15:30:36;0.00;;;0.00;;
19223;SDS011;9746;47.180;9.776;2023-09-19T15:36:00;0.00;;;0.00;;
19223;SDS011;9746;47.180;9.776;2023-09-19T15:41:29;0.00;;;0.00;;
19223;SDS011;9746;47.180;9.776;2023-09-19T15:44:01;0.00;;;0.00;;
19223;SDS011;9746;47.180;9.776;2023-09-19T15:49:30;0.00;;;0.00;;
19223;SDS011;9746;47.180;9.776;2023-09-19T15:55:02;0.00;;;0.00;;
19223;SDS011;9746;47.180;9.776;2023-09-19T15:57:41;0.00;;;0.00;;
19223;SDS011;9746;47.180;9.776;2023-09-19T16:00:12;0.00;;;0.00;;
19223;SDS011;9746;47.180;9.776;2023-09-19T16:02:42;0.00;;;0.00;;
19223;SDS011;9746;47.180;9.776;2023-09-19T16:05:11;0.10;;;0.10;;
19223;SDS011;9746;47.180;9.776;2023-09-19T16:07:45;0.00;;;0.00;;
19223;SDS011;9746;47.180;9.776;2023-09-19T16:10:13;0.10;;;0.10;;
19223;SDS011;9746;47.180;9.776;2023-09-19T16:12:57;0.10;;;0.10;;
19223;SDS011;9746;47.180;9.776;2023-09-19T16:15:26;0.10;;;0.10;;
19223;SDS011;9746;47.180;9.776;2023-09-19T16:20:36;0.10;;;0.10;;
19223;SDS011;9746;47.180;9.776;2023-09-19T16:23:12;0.10;;;0.10;;
19223;SDS011;9746;47.180;9.776;2023-09-19T16:25:40;0.00;;;0.00;;
19223;SDS011;9746;47.180;9.776;2023-09-19T16:28:09;0.05;;;0.05;;
19223;SDS011;9746;47.180;9.776;2023-09-19T16:30:38;0.10;;;0.10;;
19223;SDS011;9746;47.180;9.776;2023-09-19T16:36:17;0.10;;;0.10;;
19223;SDS011;9746;47.180;9.776;2023-09-19T16:41:17;0.10;;;0.10;;
19223;SDS011;9746;47.180;9.776;2023-09-19T16:43:46;0.10;;;0.10;;
19223;SDS011;9746;47.180;9.776;2023-09-19T16:46:16;0.10;;;0.10;;
19223;SDS011;9746;47.180;9.776;2023-09-19T16:49:00;0.10;;;0.10;;
19223;SDS011;9746;47.180;9.776;2023-09-19T16:51:29;0.10;;;0.10;;
19223;SDS011;9746;47.180;9.776;2023-09-19T16:53:57;0.10;;;0.10;;
19223;SDS011;9746;47.180;9.776;2023-09-19T16:56:26;0.10;;;0.10;;
19223;SDS011;9746;47.180;9.776;2023-09-19T16:58:56;0.10;;;0.10;;
19223;SDS011;9746;47.180;9.776;2023-09-19T17:01:27;0.10;;;0.10;;
19223;SDS011;9746;47.180;9.776;2023-09-19T17:04:05;0.10;;;0.10;;
19223;SDS011;9746;47.180;9.776;2023-09-19T17:06:33;0.10;;;0.10;;
19223;SDS011;9746;47.180;9.776;2023-09-19T17:09:02;0.10;;;0.10;;
19223;SDS011;9746;47.180;9.776;2023-09-19T17:11:30;0.10;;;0.10;;
19223;SDS011;9746;47.180;9.776;2023-09-19T17:16:43;0.10;;;0.10;;
19223;SDS011;9746;47.180;9.776;2023-09-19T17:19:27;0.10;;;0.10;;
19223;SDS011;9746;47.180;9.776;2023-09-19T17:21:55;0.10;;;0.10;;
19223;SDS011;9746;47.180;9.776;2023-09-19T17:24:22;0.10;;;0.10;;
19223;SDS011;9746;47.180;9.776;2023-09-19T17:26:49;0.10;;;0.10;;
19223;SDS011;9746;47.180;9.776;2023-09-19T17:29:17;0.10;;;0.10;;
19223;SDS011;9746;47.180;9.776;2023-09-19T17:31:46;0.10;;;0.10;;
19223;SDS011;9746;47.180;9.776;2023-09-19T17:34:14;0.10;;;0.10;;
19223;SDS011;9746;47.180;9.776;2023-09-19T17:36:42;0.13;;;0.13;;
19223;SDS011;9746;47.180;9.776;2023-09-19T17:39:11;0.10;;;0.10;;
19223;SDS011;9746;47.180;9.776;2023-09-19T17:41:40;0.10;;;0.10;;
19223;SDS011;9746;47.180;9.776;2023-09-19T17:44:09;0.10;;;0.10;;
19223;SDS011;9746;47.180;9.776;2023-09-19T17:46:36;0.13;;;0.13;;
19223;SDS011;9746;47.180;9.776;2023-09-19T17:49:09;0.20;;;0.20;;
19223;SDS011;9746;47.180;9.776;2023-09-19T17:51:38;0.10;;;0.10;;
19223;SDS011;9746;47.180;9.776;2023-09-19T17:57:28;0.10;;;0.10;;
19223;SDS011;9746;47.180;9.776;2023-09-19T17:59:57;0.10;;;0.10;;
19223;SDS011;9746;47.180;9.776;2023-09-19T18:04:56;0.20;;;0.20;;
19223;SDS011;9746;47.180;9.776;2023-09-19T18:07:36;0.20;;;0.20;;
19223;SDS011;9746;47.180;9.776;2023-09-19T18:10:04;0.20;;;0.20;;
19223;SDS011;9746;47.180;9.776;2023-09-19T18:12:34;0.10;;;0.10;;
19223;SDS011;9746;47.180;9.776;2023-09-19T18:15:02;0.10;;;0.10;;
19223;SDS011;9746;47.180;9.776;2023-09-19T18:17:32;0.20;;;0.20;;
19223;SDS011;9746;47.180;9.776;2023-09-19T18:20:14;0.13;;;0.13;;
19223;SDS011;9746;47.180;9.776;2023-09-19T18:23:06;0.20;;;0.20;;
19223;SDS011;9746;47.180;9.776;2023-09-19T18:25:34;0.20;;;0.20;;
19223;SDS011;9746;47.180;9.776;2023-09-19T18:28:03;0.20;;;0.20;;
19223;SDS011;9746;47.180;9.776;2023-09-19T18:30:31;0.10;;;0.10;;
19223;SDS011;9746;47.180;9.776;2023-09-19T18:33:00;0.10;;;0.10;;
19223;SDS011;9746;47.180;9.776;2023-09-19T18:35:30;0.13;;;0.13;;
19223;SDS011;9746;47.180;9.776;2023-09-19T18:40:35;0.10;;;0.10;;
19223;SDS011;9746;47.180;9.776;2023-09-19T18:45:34;0.10;;;0.10;;
19223;SDS011;9746;47.180;9.776;2023-09-19T18:50:52;0.20;;;0.20;;
19223;SDS011;9746;47.180;9.776;2023-09-19T18:53:24;0.10;;;0.10;;
19223;SDS011;9746;47.180;9.776;2023-09-19T18:56:02;0.10;;;0.10;;
19223;SDS011;9746;47.180;9.776;2023-09-19T18:58:34;0.10;;;0.10;;
19223;SDS011;9746;47.180;9.776;2023-09-19T19:01:02;0.10;;;0.10;;
19223;SDS011;9746;47.180;9.776;2023-09-19T19:03:29;0.13;;;0.13;;
19223;SDS011;9746;47.180;9.776;2023-09-19T19:06:04;0.10;;;0.10;;
19223;SDS011;9746;47.180;9.776;2023-09-19T19:08:37;0.20;;;0.20;;
19223;SDS011;9746;47.180;9.776;2023-09-19T19:11:06;0.20;;;0.20;;
19223;SDS011;9746;47.180;9.776;2023-09-19T19:13:37;0.20;;;0.20;;
19223;SDS011;9746;47.180;9.776;2023-09-19T19:16:04;0.10;;;0.10;;
19223;SDS011;9746;47.180;9.776;2023-09-19T19:18:36;0.13;;;0.13;;
19223;SDS011;9746;47.180;9.776;2023-09-19T19:21:06;0.15;;;0.15;;
19223;SDS011;9746;47.180;9.776;2023-09-19T19:26:15;0.17;;;0.17;;
19223;SDS011;9746;47.180;9.776;2023-09-19T19:28:42;0.17;;;0.17;;
19223;SDS011;9746;47.180;9.776;2023-09-19T19:31:11;0.10;;;0.10;;
19223;SDS011;9746;47.180;9.776;2023-09-19T19:33:41;0.10;;;0.10;;
19223;SDS011;9746;47.180;9.776;2023-09-19T19:36:10;0.20;;;0.20;;
19223;SDS011;9746;47.180;9.776;2023-09-19T19:38:40;0.20;;;0.20;;
